Time;durP1;ratioP1;P1;durP2;ratioP2;P2;SDS_P1;SDS_P2;PMS_P1;PMS_P2;Temp;Humidity;BMP_temperature;BMP_pressure;BME280_temperature;BME280_humidity;BME280_pressure;Samples;Min_cycle;Max_cycle;Signal;HPM_P1;HPM_P2
2023/03/14 00:02:16;;;;;;;3.50;1.50;;;;;;;5.96;43.32;99647.19;6165839;23;20458;-92
2023/03/14 00:04:42;;;;;;;5.57;1.77;;;;;;;5.96;43.36;99640.00;6166060;23;20001;-93
2023/03/14 00:07:07;;;;;;;4.85;2.92;;;;;;;5.87;47.00;99655.53;6165789;23;20001;-93
2023/03/14 00:09:33;;;;;;;5.10;2.60;;;;;;;5.66;48.24;99645.38;6165366;23;20091;-93
2023/03/14 00:11:59;;;;;;;6.50;3.55;;;;;;;5.47;49.49;99625.94;6165048;23;20087;-93
2023/03/14 00:14:24;;;;;;;7.70;3.72;;;;;;;5.41;50.06;99649.00;6189381;23;20407;-93
2023/03/14 00:16:50;;;;;;;12.30;4.20;;;;;;;5.11;50.44;99640.22;6164704;23;20000;-93
2023/03/14 00:19:15;;;;;;;8.35;3.60;;;;;;;4.98;50.82;99643.84;6165278;23;20008;-92
2023/03/14 00:21:41;;;;;;;8.23;3.00;;;;;;;4.84;50.34;99629.88;6164480;23;20012;-93
2023/03/14 00:24:07;;;;;;;6.28;3.47;;;;;;;4.83;50.67;99634.38;6164898;23;20062;-90
2023/03/14 00:26:33;;;;;;;8.57;4.63;;;;;;;4.62;52.00;99621.53;6164685;23;20004;-93
2023/03/14 00:28:58;;;;;;;7.32;3.70;;;;;;;4.62;51.91;99618.84;6164728;23;20007;-93
2023/03/14 00:31:24;;;;;;;7.00;3.88;;;;;;;4.60;52.53;99619.06;6164758;23;19997;-93
2023/03/14 00:33:51;;;;;;;8.52;5.10;;;;;;;4.66;52.93;99602.19;6164595;23;19996;-93
2023/03/14 00:36:17;;;;;;;11.98;5.68;;;;;;;4.88;51.96;99612.38;6189805;23;19997;-92
2023/03/14 00:38:45;;;;;;;10.60;5.25;;;;;;;4.91;51.80;99614.59;6164962;23;20083;-93
2023/03/14 00:41:13;;;;;;;9.30;5.53;;;;;;;4.57;52.93;99594.72;6189962;23;20443;-93
2023/03/14 00:43:38;;;;;;;10.98;4.28;;;;;;;4.52;52.76;99598.03;6165534;23;20004;-93
2023/03/14 00:46:04;;;;;;;11.45;5.18;;;;;;;4.58;52.66;99596.34;6165727;23;20007;-93
2023/03/14 00:48:30;;;;;;;9.48;5.38;;;;;;;4.72;52.28;99600.47;6189960;23;20007;-93
2023/03/14 00:50:55;;;;;;;7.07;4.10;;;;;;;4.58;53.25;99585.66;6165482;23;20098;-92
2023/03/14 00:53:21;;;;;;;6.40;3.70;;;;;;;4.61;53.18;99602.03;6165630;23;19996;-93
2023/03/14 00:55:47;;;;;;;5.68;3.78;;;;;;;4.48;52.37;99588.84;6190471;23;20007;-93
2023/03/14 00:58:13;;;;;;;6.97;4.28;;;;;;;4.40;52.28;99578.50;6165599;23;20138;-93
2023/03/14 01:00:39;;;;;;;9.07;3.80;;;;;;;4.50;52.17;99575.31;6165151;23;20005;-93
2023/03/14 01:03:05;;;;;;;7.03;4.55;;;;;;;4.42;53.06;99571.09;6165637;23;20351;-93
2023/03/14 01:05:31;;;;;;;10.63;4.50;;;;;;;4.54;52.99;99587.97;6165282;23;19997;-93
2023/03/14 01:07:57;;;;;;;10.40;4.80;;;;;;;4.58;52.93;99581.16;6164606;23;20044;-93
2023/03/14 01:10:22;;;;;;;6.50;3.70;;;;;;;4.56;52.77;99550.41;6164756;23;20008;-93
2023/03/14 01:12:48;;;;;;;6.80;4.00;;;;;;;4.59;52.14;99555.31;6166080;23;20001;-92
2023/03/14 01:15:14;;;;;;;7.68;3.65;;;;;;;4.75;51.87;99567.19;6166416;23;20011;-93
2023/03/14 01:17:39;;;;;;;7.35;3.47;;;;;;;4.73;51.49;99558.59;6167146;23;20155;-93
2023/03/14 01:20:08;;;;;;;3.67;2.38;;;;;;;4.80;48.41;99568.16;6166641;23;20008;-92
2023/03/14 01:22:35;;;;;;;4.30;2.30;;;;;;;4.81;47.38;99563.63;6167700;23;20348;-93
2023/03/14 01:25:00;;;;;;;6.10;3.42;;;;;;;4.77;49.12;99549.94;6191599;23;20408;-92
2023/03/14 01:27:29;;;;;;;7.60;4.60;;;;;;;4.60;52.43;99556.94;6166328;23;20000;-92
2023/03/14 01:29:54;;;;;;;6.68;3.90;;;;;;;4.47;53.18;99544.59;6167823;23;20005;-93
2023/03/14 01:32:20;;;;;;;7.68;4.10;;;;;;;4.26;54.40;99553.84;6191103;23;19992;-93
2023/03/14 01:34:45;;;;;;;5.30;3.40;;;;;;;4.17;54.38;99555.16;6167036;23;20016;-93
2023/03/14 01:37:11;;;;;;;5.78;3.60;;;;;;;4.16;54.13;99549.03;6190893;23;20004;-93
2023/03/14 01:39:37;;;;;;;6.18;3.63;;;;;;;4.01;55.05;99544.06;6168285;23;20351;-92
2023/03/14 01:42:03;;;;;;;6.63;4.03;;;;;;;3.91;54.68;99546.44;6167543;23;20008;-93
2023/03/14 01:44:45;;;;;;;9.77;4.40;;;;;;;3.92;55.02;99553.41;6191717;23;20000;-93
2023/03/14 01:47:11;;;;;;;7.20;4.35;;;;;;;3.76;55.55;99543.31;6191891;23;20483;-92
2023/03/14 01:49:36;;;;;;;7.90;4.57;;;;;;;3.74;56.54;99542.72;6166216;23;20007;-93
2023/03/14 01:52:14;;;;;;;7.00;4.35;;;;;;;3.51;56.71;99522.00;6166052;23;20379;-93
2023/03/14 01:54:41;;;;;;;6.43;3.17;;;;;;;3.58;56.43;99544.09;6166130;23;20004;-93
2023/03/14 01:57:15;;;;;;;5.28;3.35;;;;;;;3.57;56.15;99542.44;6166112;23;20032;-92
2023/03/14 01:59:46;;;;;;;6.93;4.03;;;;;;;3.44;56.97;99540.72;6167188;23;19996;-92
2023/03/14 02:02:12;;;;;;;5.32;2.90;;;;;;;3.32;56.20;99526.47;6167088;23;20009;-92
2023/03/14 02:04:38;;;;;;;6.45;3.40;;;;;;;3.27;55.88;99521.00;6166130;23;20012;-93
2023/03/14 02:07:13;;;;;;;6.35;3.38;;;;;;;3.32;55.22;99519.34;6166138;23;20028;-93
2023/03/14 02:09:39;;;;;;;4.78;3.42;;;;;;;3.39;55.64;99536.03;6166768;23;20333;-92
2023/03/14 02:12:06;;;;;;;6.60;3.95;;;;;;;3.52;55.93;99534.31;6166903;23;19997;-93
2023/03/14 02:14:33;;;;;;;8.38;3.88;;;;;;;3.61;56.14;99536.47;6191751;23;20059;-93
2023/03/14 02:17:00;;;;;;;6.13;3.90;;;;;;;3.63;55.75;99517.59;6191694;23;20083;-92
2023/03/14 02:19:59;;;;;;;8.98;3.83;;;;;;;3.64;55.84;99516.59;6192663;23;20024;-93
2023/03/14 02:22:24;;;;;;;8.93;4.50;;;;;;;3.66;55.87;99548.31;6171975;23;20016;-93
2023/03/14 02:25:17;;;;;;;9.40;4.78;;;;;;;3.57;56.21;99542.44;6190803;23;20005;-93
2023/03/14 02:27:43;;;;;;;9.98;5.38;;;;;;;3.47;56.56;99532.31;6194538;23;20000;-93
2023/03/14 02:30:17;;;;;;;8.30;4.38;;;;;;;3.54;56.52;99534.91;6166498;23;20424;-93
2023/03/14 02:32:45;;;;;;;7.43;3.95;;;;;;;3.46;56.53;99521.88;6167094;23;20007;-93
2023/03/14 02:35:13;;;;;;;10.05;4.93;;;;;;;3.42;56.11;99502.84;6190800;23;20012;-93
2023/03/14 02:37:59;;;;;;;10.23;5.40;;;;;;;3.53;56.57;99531.44;6190996;23;20000;-93
2023/03/14 02:40:25;;;;;;;8.48;4.65;;;;;;;3.54;56.91;99524.25;6194884;23;20455;-92
2023/03/14 02:42:51;;;;;;;8.20;4.50;;;;;;;3.71;56.22;99522.66;6165899;23;20005;-93
2023/03/14 02:45:16;;;;;;;6.85;3.50;;;;;;;3.67;55.87;99534.78;6165722;23;20004;-93
2023/03/14 02:48:04;;;;;;;7.05;3.90;;;;;;;3.72;55.56;99532.28;6215744;23;19996;-92
2023/03/14 02:50:33;;;;;;;9.02;3.90;;;;;;;3.60;55.76;99532.19;6190973;23;20004;-92
2023/03/14 02:52:58;;;;;;;8.57;3.85;;;;;;;3.74;55.42;99532.88;6191576;23;20003;-93
2023/03/14 02:55:27;;;;;;;6.63;3.55;;;;;;;3.53;55.89;99509.28;6166067;23;20480;-94
2023/03/14 02:57:53;;;;;;;11.25;4.65;;;;;;;3.67;55.96;99540.09;6164795;23;20013;-93
2023/03/14 03:00:19;;;;;;;6.78;3.78;;;;;;;3.64;56.47;99540.53;6190394;23;20062;-94
2023/03/14 03:02:45;;;;;;;5.32;3.63;;;;;;;3.42;56.40;99527.63;6190132;23;20007;-93
2023/03/14 03:05:10;;;;;;;5.88;3.35;;;;;;;3.47;56.85;99540.28;6165932;23;20001;-92
2023/03/14 03:07:36;;;;;;;8.38;3.25;;;;;;;3.38;56.21;99529.09;6166160;23;20000;-92
2023/03/14 03:10:02;;;;;;;12.32;3.80;;;;;;;3.27;56.90;99543.09;6166589;23;20000;-93
2023/03/14 03:12:28;;;;;;;7.70;3.95;;;;;;;3.24;56.67;99535.56;6192106;23;19997;-92
2023/03/14 03:14:54;;;;;;;9.88;5.32;;;;;;;3.12;57.41;99554.06;6165962;23;19996;-93
2023/03/14 03:17:19;;;;;;;10.65;5.05;;;;;;;3.10;57.16;99558.78;6165779;23;20005;-93
2023/03/14 03:19:45;;;;;;;12.73;6.13;;;;;;;3.13;57.49;99560.19;6165871;23;20004;-92
2023/03/14 03:22:11;;;;;;;11.30;5.90;;;;;;;3.04;58.77;99559.63;6190413;23;20004;-92
2023/03/14 03:24:36;;;;;;;9.73;5.47;;;;;;;2.97;58.85;99556.22;6142034;23;20001;-92
2023/03/14 03:27:02;;;;;;;11.23;5.50;;;;;;;3.09;58.65;99548.34;6166253;23;20005;-93
2023/03/14 03:29:28;;;;;;;9.30;5.28;;;;;;;3.07;59.14;99553.88;6165675;23;20000;-93
2023/03/14 03:31:53;;;;;;;12.82;5.55;;;;;;;3.24;58.40;99559.50;6166118;23;19997;-93
2023/03/14 03:34:19;;;;;;;8.77;4.22;;;;;;;3.10;58.61;99550.81;6191005;23;20000;-92
2023/03/14 03:36:44;;;;;;;15.52;5.20;;;;;;;3.07;58.26;99553.88;6190439;23;20039;-92
2023/03/14 03:39:10;;;;;;;10.80;5.15;;;;;;;3.11;58.40;99540.97;6165422;23;20424;-93
2023/03/14 03:41:35;;;;;;;6.88;3.95;;;;;;;3.03;58.32;99526.09;6165938;23;20015;-92
2023/03/14 03:44:01;;;;;;;6.30;3.88;;;;;;;3.18;57.66;99544.41;6190024;23;20023;-93
2023/03/14 03:46:27;;;;;;;6.47;3.95;;;;;;;2.92;58.32;99530.25;6166091;23;20546;-93
2023/03/14 03:48:56;;;;;;;7.63;4.10;;;;;;;2.96;57.96;99536.75;6166006;23;20011;-92
2023/03/14 03:51:22;;;;;;;6.22;3.88;;;;;;;2.94;58.15;99525.53;6190296;23;19996;-91
2023/03/14 03:53:48;;;;;;;10.75;3.88;;;;;;;2.96;58.58;99525.31;6165995;23;20008;-93
2023/03/14 03:56:13;;;;;;;7.63;4.10;;;;;;;3.03;59.00;99540.22;6165863;23;20024;-92
2023/03/14 03:58:39;;;;;;;8.00;4.07;;;;;;;2.97;58.19;99511.00;6165997;23;20011;-93
2023/03/14 04:01:06;;;;;;;5.57;3.53;;;;;;;2.91;58.21;99517.97;6165596;23;20008;-93
2023/03/14 04:03:33;;;;;;;8.95;3.97;;;;;;;2.87;58.38;99530.09;6166501;23;20008;-93
2023/03/14 04:06:03;;;;;;;5.50;3.13;;;;;;;2.71;57.83;99502.16;6166022;23;20011;-92
2023/03/14 04:08:29;;;;;;;8.40;3.05;;;;;;;2.73;57.92;99521.34;6165907;23;20000;-93
2023/03/14 04:10:58;;;;;;;10.77;3.63;;;;;;;2.62;57.95;99524.72;6165946;23;20428;-93
2023/03/14 04:13:24;;;;;;;14.45;3.35;;;;;;;2.50;58.06;99505.94;6165342;23;19996;-93
2023/03/14 04:15:50;;;;;;;8.13;3.38;;;;;;;2.33;58.32;99500.31;6166177;23;20005;-93
2023/03/14 04:18:15;;;;;;;3.95;2.50;;;;;;;2.29;58.04;99493.78;6166114;23;20115;-95
2023/03/14 04:20:41;;;;;;;12.05;5.18;;;;;;;2.20;58.77;99481.75;6191893;23;20000;-94
2023/03/14 04:23:06;;;;;;;6.75;2.70;;;;;;;2.18;58.46;99479.31;6166569;23;20004;-95
2023/03/14 04:25:32;;;;;;;8.15;3.20;;;;;;;2.09;58.68;99463.84;6169652;23;20008;-94
2023/03/14 04:27:58;;;;;;;6.38;3.42;;;;;;;2.22;57.83;99471.72;6179628;23;20008;-92
2023/03/14 04:30:23;;;;;;;11.10;3.72;;;;;;;2.43;57.88;99481.25;6178635;23;20000;-93
2023/03/14 04:32:49;;;;;;;4.57;2.80;;;;;;;2.56;57.64;99480.38;6178445;23;20023;-93
2023/03/14 04:35:14;;;;;;;8.63;2.83;;;;;;;2.55;55.33;99455.63;6175798;23;20000;-93
2023/03/14 04:37:41;;;;;;;9.55;3.20;;;;;;;2.69;54.07;99458.19;6168062;23;20007;-93
2023/03/14 04:40:08;;;;;;;7.53;1.67;;;;;;;2.96;49.61;99466.81;6168068;23;20355;-94
2023/03/14 04:42:34;;;;;;;3.45;1.58;;;;;;;3.03;46.66;99463.06;6166707;23;20024;-93
2023/03/14 04:45:00;;;;;;;12.30;4.88;;;;;;;3.17;46.27;99458.44;6190851;23;19996;-93
2023/03/14 04:47:26;;;;;;;18.13;6.65;;;;;;;3.18;45.68;99443.31;6140899;23;20007;-94
2023/03/14 04:49:51;;;;;;;9.82;4.93;;;;;;;3.26;45.28;99440.38;6167814;23;20032;-94
2023/03/14 04:52:17;;;;;;;10.25;5.57;;;;;;;3.30;44.96;99444.22;6167278;23;20054;-93
2023/03/14 04:54:42;;;;;;;9.73;4.78;;;;;;;3.48;45.13;99461.25;6168465;23;20028;-93
2023/03/14 04:57:08;;;;;;;6.68;3.70;;;;;;;3.55;44.42;99459.31;6167999;23;20017;-94
2023/03/14 04:59:34;;;;;;;7.68;2.70;;;;;;;3.55;48.05;99477.94;6168651;23;19997;-95
2023/03/14 05:01:59;;;;;;;16.45;4.72;;;;;;;3.26;52.08;99450.19;6168138;23;20000;-94
2023/03/14 05:04:25;;;;;;;12.70;4.47;;;;;;;3.32;52.68;99466.09;6168035;23;20028;-93
2023/03/14 05:06:50;;;;;;;25.92;4.97;;;;;;;3.08;54.10;99467.72;6169725;23;20007;-92
2023/03/14 05:09:16;;;;;;;9.23;4.10;;;;;;;2.96;54.18;99462.28;6167472;23;20035;-94
2023/03/14 05:11:42;;;;;;;8.80;3.85;;;;;;;2.72;55.05;99442.66;6168423;23;19993;-94
2023/03/14 05:14:08;;;;;;;32.05;24.48;;;;;;;2.85;54.65;99460.34;6167747;23;20084;-94
2023/03/14 05:16:34;;;;;;;19.20;6.03;;;;;;;2.80;54.84;99458.34;6169257;23;20031;-95
2023/03/14 05:19:01;;;;;;;20.85;6.55;;;;;;;2.71;55.15;99456.94;6174677;23;20032;-94
2023/03/14 05:21:27;;;;;;;7.22;3.45;;;;;;;2.76;55.18;99451.81;6170150;23;20009;-93
2023/03/14 05:23:52;;;;;;;14.05;8.13;;;;;;;2.88;56.35;99461.75;6168006;23;20035;-95
2023/03/14 05:26:18;;;;;;;20.75;3.75;;;;;;;2.84;56.06;99456.03;6193693;23;20016;-94
2023/03/14 05:28:44;;;;;;;16.98;3.78;;;;;;;2.87;54.61;99452.97;6170846;23;20001;-95
2023/03/14 05:31:13;;;;;;;10.90;3.90;;;;;;;2.93;54.45;99456.63;6169820;23;19996;-94
2023/03/14 05:37:03;;;;;;;16.95;5.20;;;;;;;3.01;54.03;99465.13;6219969;23;20080;-94
2023/03/14 05:39:29;;;;;;;25.98;3.85;;;;;;;3.04;53.39;99455.91;6195145;23;20001;-94
2023/03/14 05:41:55;;;;;;;8.10;3.85;;;;;;;3.22;52.35;99449.81;6169841;23;20005;-94
2023/03/14 05:44:50;;;;;;;9.70;4.20;;;;;;;3.22;52.04;99458.59;6174082;23;20051;-94
2023/03/14 05:47:15;;;;;;;8.95;4.03;;;;;;;3.38;52.84;99441.28;6144596;23;20005;-93
2023/03/14 05:49:48;;;;;;;11.98;4.25;;;;;;;3.55;52.60;99446.84;6138635;23;20079;-95
2023/03/14 05:52:13;;;;;;;15.77;5.55;;;;;;;3.52;52.18;99425.16;6139375;23;20001;-92
2023/03/14 05:54:39;;;;;;;19.02;11.07;;;;;;;3.87;51.72;99430.72;6139879;23;20012;-92
2023/03/14 05:57:05;;;;;;;15.95;7.22;;;;;;;4.05;51.89;99438.69;6137155;23;20044;-92
2023/03/14 05:59:31;;;;;;;9.23;4.18;;;;;;;4.16;49.65;99420.31;6137218;23;20037;-94
2023/03/14 06:02:03;;;;;;;7.65;3.97;;;;;;;4.40;48.84;99427.38;6139335;23;20044;-93
2023/03/14 06:04:28;;;;;;;7.50;3.55;;;;;;;4.62;48.03;99430.31;6138383;23;20448;-94
2023/03/14 06:06:54;;;;;;;9.50;3.83;;;;;;;4.78;48.25;99436.88;6135820;23;20035;-92
2023/03/14 06:09:22;;;;;;;10.43;3.67;;;;;;;4.81;47.91;99432.91;6136709;23;20001;-94
2023/03/14 06:11:47;;;;;;;9.38;4.03;;;;;;;4.92;47.67;99441.97;6136853;23;20004;-93
2023/03/14 06:14:17;;;;;;;12.07;8.43;;;;;;;5.07;47.68;99439.69;6136919;23;20001;-95
2023/03/14 06:16:43;;;;;;;10.50;5.78;;;;;;;5.38;47.03;99445.75;6141682;23;20032;-96
2023/03/14 06:19:08;;;;;;;9.20;5.38;;;;;;;5.48;45.80;99429.97;6166029;23;20355;-93
2023/03/14 06:21:34;;;;;;;5.85;3.30;;;;;;;5.60;42.90;99427.25;6169324;23;20095;-94
2023/03/14 06:24:03;;;;;;;7.30;3.83;;;;;;;5.77;41.49;99433.50;6169802;23;20007;-95
2023/03/14 06:26:29;;;;;;;4.53;2.20;;;;;;;5.86;40.82;99420.59;6195525;23;20004;-95
2023/03/14 06:29:04;;;;;;;4.00;2.40;;;;;;;6.19;39.19;99430.63;6171004;23;20000;-96
2023/03/14 06:31:33;;;;;;;2.67;1.70;;;;;;;6.46;38.04;99435.41;6201580;23;20076;-96
2023/03/14 06:34:02;;;;;;;8.95;2.55;;;;;;;6.55;37.81;99419.78;6171826;23;20008;-95
2023/03/14 06:36:46;;;;;;;13.55;5.25;;;;;;;6.71;42.41;99437.72;6196777;23;20104;-93
2023/03/14 06:39:11;;;;;;;8.77;3.55;;;;;;;6.76;40.50;99429.78;6170229;23;20031;-92
2023/03/14 06:41:37;;;;;;;18.65;7.32;;;;;;;6.85;44.11;99435.56;6170098;23;20008;-93
2023/03/14 06:44:03;;;;;;;11.23;5.82;;;;;;;6.91;43.31;99418.53;6168687;23;20036;-92
2023/03/14 06:46:28;;;;;;;8.10;3.58;;;;;;;7.07;40.00;99414.22;6172087;23;20083;-94
2023/03/14 06:49:05;;;;;;;21.38;10.75;;;;;;;7.38;39.65;99422.72;6198342;23;20000;-95
2023/03/14 06:51:31;;;;;;;11.85;3.75;;;;;;;7.49;38.29;99408.38;6193000;23;20011;-92
2023/03/14 06:53:57;;;;;;;11.07;4.18;;;;;;;7.55;36.46;99407.41;6192166;23;20005;-95
2023/03/14 06:56:39;;;;;;;12.38;6.07;;;;;;;7.71;38.23;99411.09;6176778;23;20016;-96
2023/03/14 06:59:08;;;;;;;8.50;3.13;;;;;;;8.02;36.80;99419.53;6194303;23;20022;-95
2023/03/14 07:01:34;;;;;;;7.80;3.95;;;;;;;8.11;36.27;99401.91;6167204;23;20008;-92
2023/03/14 07:04:00;;;;;;;12.50;3.80;;;;;;;8.32;36.37;99411.00;6167063;23;20001;-93
2023/03/14 07:06:29;;;;;;;7.55;3.08;;;;;;;8.37;35.82;99388.78;6165889;23;20005;-94
2023/03/14 07:09:06;;;;;;;21.13;3.55;;;;;;;8.53;35.07;99395.13;6168365;23;20000;-94
2023/03/14 07:11:55;;;;;;;16.92;7.10;;;;;;;8.70;34.91;99396.63;6128625;23;19993;-94
2023/03/14 07:14:21;;;;;;;6.75;2.60;;;;;;;8.83;34.10;99381.97;6173614;23;20000;-92
2023/03/14 07:16:59;;;;;;;5.65;2.63;;;;;;;9.06;33.96;99385.38;6174146;23;20386;-95
2023/03/14 07:19:33;;;;;;;12.50;2.55;;;;;;;8.98;34.11;99383.16;6178579;23;20005;-94
2023/03/14 07:25:58;;;;;;;6.15;2.70;;;;;;;9.43;33.39;99379.16;6190266;23;20406;-94
2023/03/14 07:38:12;;;;;;;4.90;2.53;;;;;;;10.18;30.74;99352.00;6105244;23;20009;-94
2023/03/14 07:40:44;;;;;;;19.05;6.05;;;;;;;10.25;31.57;99366.00;6084306;23;20018;-94
2023/03/14 07:43:09;;;;;;;3.72;2.22;;;;;;;10.30;30.21;99345.31;6132977;23;20087;-93
2023/03/14 07:48:09;;;;;;;5.00;2.70;;;;;;;10.74;30.95;99344.00;6141983;23;20373;-93
2023/03/14 07:50:35;;;;;;;4.38;2.25;;;;;;;10.92;29.60;99335.34;6162177;23;20001;-94
2023/03/14 07:53:26;;;;;;;7.22;2.42;;;;;;;11.19;29.49;99328.03;6137349;23;19997;-92
2023/03/14 07:56:01;;;;;;;5.13;2.97;;;;;;;11.42;28.87;99322.03;6142851;23;20068;-94
2023/03/14 07:58:28;;;;;;;3.05;2.03;;;;;;;11.52;28.92;99311.22;6163864;23;20459;-94
2023/03/14 08:01:05;;;;;;;10.30;3.72;;;;;;;11.70;28.44;99327.84;6166470;23;20421;-95
2023/03/14 08:03:36;;;;;;;7.30;3.67;;;;;;;11.73;28.13;99313.81;6145505;23;20420;-94
2023/03/14 08:06:17;;;;;;;5.67;2.80;;;;;;;11.78;28.16;99296.78;6151853;23;20021;-94
2023/03/14 08:08:46;;;;;;;2.45;1.45;;;;;;;11.95;27.70;99302.66;6150025;23;20722;-95
2023/03/14 08:11:24;;;;;;;3.85;2.17;;;;;;;12.23;27.31;99306.53;6149151;23;20052;-95
2023/03/14 08:14:36;;;;;;;3.45;1.48;;;;;;;12.34;27.48;99294.56;6142325;23;20001;-94
2023/03/14 08:17:20;;;;;;;2.55;1.45;;;;;;;12.64;26.07;99303.50;6119354;23;20001;-95
2023/03/14 08:20:19;;;;;;;2.80;1.70;;;;;;;12.69;25.80;99303.44;6095061;23;20326;-96
2023/03/14 08:22:48;;;;;;;4.38;1.98;;;;;;;12.54;26.33;99293.59;6099193;23;20009;-93
2023/03/14 08:25:17;;;;;;;15.88;5.35;;;;;;;12.62;26.33;99275.97;6108353;23;20031;-93
2023/03/14 08:28:01;;;;;;;6.57;2.95;;;;;;;12.78;27.49;99294.72;6089135;23;20009;-93
2023/03/14 08:30:30;;;;;;;11.35;4.70;;;;;;;12.93;26.76;99267.56;6117309;23;20013;-92
2023/03/14 08:32:57;;;;;;;3.25;1.58;;;;;;;13.27;25.41;99289.06;6084880;23;20006;-94
2023/03/14 08:35:31;;;;;;;2.35;1.23;;;;;;;13.27;24.80;99256.63;6089461;23;20073;-95
2023/03/14 08:37:59;;;;;;;12.23;3.50;;;;;;;13.26;24.95;99265.84;6130835;23;20028;-93
2023/03/14 08:40:37;;;;;;;28.15;9.40;;;;;;;13.45;25.04;99274.03;6142770;23;20008;-93
2023/03/14 08:43:09;;;;;;;12.32;4.55;;;;;;;13.30;24.13;99266.91;6145982;23;20015;-93
2023/03/14 08:46:18;;;;;;;;;;;;;;;;;;;;;
2023/03/14 09:08:22;;;;;;;7.53;1.48;;;;;;;14.61;22.33;99247.41;6192053;22;19942;-96
2023/03/14 09:11:08;;;;;;;10.00;4.80;;;;;;;14.60;19.95;99239.56;6147641;23;20013;-95
2023/03/14 09:13:48;;;;;;;2.38;1.20;;;;;;;14.56;18.90;99228.53;6148507;23;20005;-95
2023/03/14 09:16:24;;;;;;;2.60;1.30;;;;;;;14.58;18.92;99223.59;6121335;23;20351;-95
2023/03/14 09:19:07;;;;;;;7.18;4.63;;;;;;;14.63;19.03;99209.16;6124494;23;19989;-95
2023/03/14 09:21:39;;;;;;;15.27;10.43;;;;;;;14.88;18.77;99224.97;6117517;23;20001;-94
2023/03/14 09:24:05;;;;;;;;;;;;;;;15.02;19.01;99224.94;6146617;23;20031;-94
2023/03/14 09:26:37;;;;;;;7.85;1.80;;;;;;;14.91;19.05;99208.06;6149669;23;19939;-94
2023/03/14 09:29:06;;;;;;;4.07;1.80;;;;;;;14.72;18.55;99210.09;6121192;23;20001;-95
2023/03/14 09:31:37;;;;;;;3.63;1.20;;;;;;;14.83;18.60;99203.34;6123127;23;19997;-96
2023/03/14 09:34:06;;;;;;;2.45;1.70;;;;;;;14.98;19.17;99191.41;6125871;23;19985;-95
2023/03/14 09:36:38;;;;;;;1.75;1.17;;;;;;;15.00;18.17;99189.19;6136317;23;20035;-94
2023/03/14 09:39:36;;;;;;;3.65;1.60;;;;;;;15.14;19.05;99186.47;6114537;23;20001;-95
2023/03/14 09:43:00;;;;;;;;;;;;;;;;;;;;;
2023/03/14 09:45:25;;;;;;;9.45;2.88;;;;;;;15.44;17.37;99176.06;6075047;23;20018;-96
2023/03/14 09:47:54;;;;;;;3.08;1.98;;;;;;;15.66;18.05;99176.09;6064112;23;20018;-94
2023/03/14 09:56:58;;;;;;;4.57;1.70;;;;;;;15.62;18.28;99156.13;6017478;23;20010;-96
2023/03/14 09:59:27;;;;;;;6.45;3.15;;;;;;;15.69;17.33;99145.66;5991872;23;20026;-94
2023/03/14 10:01:58;;;;;;;2.75;1.50;;;;;;;15.60;18.22;99144.75;5968295;23;20016;-94
2023/03/14 10:04:32;;;;;;;3.10;1.38;;;;;;;15.67;18.48;99142.44;5970830;23;20003;-94
2023/03/14 10:09:35;;;;;;;3.95;2.65;;;;;;;15.89;17.80;99130.78;6183664;22;20052;-96
2023/03/14 10:12:01;;;;;;;15.35;6.90;;;;;;;16.15;17.44;99146.47;6122630;23;20028;-95
2023/03/14 10:14:53;;;;;;;3.78;2.58;;;;;;;16.13;17.29;99121.53;6168668;23;20004;-95
2023/03/14 10:17:19;;;;;;;3.47;1.80;;;;;;;16.20;17.70;99134.66;6124537;23;20005;-92
2023/03/14 10:19:57;;;;;;;5.78;1.48;;;;;;;16.25;17.82;99121.75;6164153;23;20027;-94
2023/03/14 10:22:26;;;;;;;1.65;1.20;;;;;;;16.36;17.10;99131.22;6141385;23;20032;-93
2023/03/14 10:25:22;;;;;;;4.28;1.70;;;;;;;16.41;17.99;99124.03;6115454;23;20079;-93
2023/03/14 10:28:10;;;;;;;;;;;;;;;;;;;;;
2023/03/14 10:30:47;;;;;;;4.65;2.80;;;;;;;16.53;17.77;99105.22;6142842;23;20031;-95
2023/03/14 10:33:22;;;;;;;6.25;1.75;;;;;;;16.67;17.24;99108.63;6163559;23;20428;-94
2023/03/14 10:36:04;;;;;;;2.30;1.10;;;;;;;16.76;16.89;99100.50;6166555;23;20005;-92
2023/03/14 10:38:38;;;;;;;1.80;1.10;;;;;;;16.73;16.26;99099.22;6119183;23;20004;-95
2023/03/14 10:41:27;;;;;;;2.63;1.30;;;;;;;16.76;16.66;99084.19;6124612;23;20001;-94
2023/03/14 10:44:02;;;;;;;6.57;1.80;;;;;;;16.92;17.06;99079.94;6144287;23;20032;-94
2023/03/14 10:46:37;;;;;;;3.97;1.50;;;;;;;16.98;15.52;99082.50;6165637;23;20049;-94
2023/03/14 10:49:15;;;;;;;8.48;1.30;;;;;;;16.89;16.00;99050.66;6146903;23;20004;-95
2023/03/14 10:51:56;;;;;;;;;;;;;;;;;;;;;
2023/03/14 10:54:23;;;;;;;7.18;1.80;;;;;;;17.03;16.11;99050.50;6149865;23;20021;-95
2023/03/14 10:57:01;;;;;;;11.98;1.98;;;;;;;17.09;15.82;99040.28;6147312;23;20001;-93
2023/03/14 10:59:37;;;;;;;9.45;1.90;;;;;;;17.12;16.11;99042.34;6115325;23;20058;-94
2023/03/14 11:02:39;;;;;;;1.70;1.17;;;;;;;17.12;16.84;99028.72;6116018;23;20033;-93
2023/03/14 11:05:42;;;;;;;;;;;;;;;;;;;;;
2023/03/14 11:08:57;;;;;;;;;;;;;;;;;;;;;
2023/03/14 11:11:54;;;;;;;4.63;2.10;;;;;;;17.29;16.85;99019.78;6153283;23;20440;-96
2023/03/14 11:14:54;;;;;;;4.75;2.55;;;;;;;17.36;16.31;99006.47;6137200;23;20017;-94
2023/03/14 11:17:29;;;;;;;6.53;1.48;;;;;;;17.37;17.00;99006.16;6111737;23;20002;-94
2023/03/14 11:20:37;;;;;;;7.13;2.00;;;;;;;17.31;17.17;98998.50;6134483;23;20013;-95
2023/03/14 11:23:33;;;;;;;7.95;1.85;;;;;;;17.42;16.98;98993.50;6137118;23;20005;-94
2023/03/14 11:42:08;;;;;;;5.43;1.30;;;;;;;17.51;17.27;98942.56;6240840;23;20035;-94
2023/03/14 11:45:37;;;;;;;;;;;;;;;;;;;;;
2023/03/14 12:07:31;;;;;;;;;;;;;;;;;;;;;
2023/03/14 12:16:42;;;;;;;5.55;1.73;;;;;;;17.92;18.37;98868.41;6175868;22;20019;-94
2023/03/14 12:19:47;;;;;;;4.35;1.50;;;;;;;17.87;18.22;98857.72;6144214;23;20043;-93
2023/03/14 12:23:23;;;;;;;2.40;1.08;;;;;;;17.80;18.51;98849.22;6126151;23;20145;-93
2023/03/14 12:26:08;;;;;;;5.90;1.55;;;;;;;17.93;19.03;98861.84;6081297;23;20066;-95
2023/03/14 12:37:02;;;;;;;11.13;1.83;;;;;;;18.12;18.26;98838.81;6204004;22;20028;-94
2023/03/14 12:39:43;;;;;;;6.47;2.20;;;;;;;18.17;18.83;98844.03;6175629;23;20047;-95
2023/03/14 12:43:07;;;;;;;;;;;;;;;;;;;;;
2023/03/14 12:57:44;;;;;;;4.43;1.50;;;;;;;17.85;19.71;98797.31;6198122;23;19984;-95
2023/03/14 13:00:20;;;;;;;8.93;2.45;;;;;;;17.89;20.06;98783.84;6174285;23;20448;-96
2023/03/14 13:03:28;;;;;;;4.78;1.65;;;;;;;17.94;19.57;98776.25;6147885;23;20001;-95
2023/03/14 13:17:54;;;;;;;3.75;1.65;;;;;;;17.49;20.32;98757.81;6189088;23;20020;-95
2023/03/14 13:21:01;;;;;;;2.78;1.70;;;;;;;17.66;20.77;98769.69;6140655;23;20416;-95
2023/03/14 13:30:38;;;;;;;;;;;;;;;;;;;;;
2023/03/14 13:33:16;;;;;;;3.47;1.63;;;;;;;17.38;20.82;98738.31;6171777;23;20451;-95
2023/03/14 13:35:47;;;;;;;9.45;2.90;;;;;;;17.43;21.36;98753.69;6150977;23;20151;-93
2023/03/14 13:38:24;;;;;;;10.97;2.07;;;;;;;17.53;21.35;98747.81;6118648;23;20015;-96
2023/03/14 13:40:50;;;;;;;9.60;2.20;;;;;;;17.52;21.14;98718.25;6122168;23;20236;-96
2023/03/14 13:43:43;;;;;;;5.65;2.72;;;;;;;17.69;21.36;98723.56;6118009;23;20012;-95
2023/03/14 13:46:27;;;;;;;17.75;11.50;;;;;;;17.82;20.76;98738.03;6145551;23;20008;-94
2023/03/14 13:48:55;;;;;;;5.35;1.50;;;;;;;17.80;20.30;98739.50;6124418;23;20001;-94
2023/03/14 13:51:38;;;;;;;3.13;1.40;;;;;;;17.66;21.36;98726.94;6127995;23;19997;-94
2023/03/14 13:54:21;;;;;;;3.28;1.25;;;;;;;17.54;21.48;98719.50;6123889;23;20005;-95
2023/03/14 13:56:54;;;;;;;9.13;5.38;;;;;;;17.52;22.11;98708.13;6143489;23;20002;-93
2023/03/14 14:03:20;;;;;;;4.90;1.60;;;;;;;17.90;21.50;98717.34;6215596;22;20024;-94
2023/03/14 14:05:45;;;;;;;3.40;1.77;;;;;;;18.08;21.80;98716.06;6146738;23;20075;-95
2023/03/14 14:08:17;;;;;;;3.38;1.85;;;;;;;18.00;21.14;98706.03;6143664;23;20338;-96
2023/03/14 14:10:45;;;;;;;9.13;1.70;;;;;;;17.80;21.73;98687.75;6146769;23;19996;-94
2023/03/14 14:13:18;;;;;;;2.78;1.65;;;;;;;17.90;22.00;98677.28;6172931;23;20069;-95
2023/03/14 14:15:48;;;;;;;9.10;2.10;;;;;;;18.03;22.10;98699.91;6149258;23;20007;-93
2023/03/14 14:18:20;;;;;;;4.72;1.75;;;;;;;17.83;22.12;98674.31;6086490;23;20002;-94
2023/03/14 14:20:50;;;;;;;26.02;11.45;;;;;;;17.83;22.22;98676.25;6059901;23;20006;-94
2023/03/14 14:23:31;;;;;;;49.17;29.85;;;;;;;18.04;21.80;98698.78;6058166;23;20006;-95
2023/03/14 14:26:07;;;;;;;8.82;2.25;;;;;;;18.12;21.70;98694.41;6082956;23;20024;-94
2023/03/14 14:44:12;;;;;;;7.45;2.22;;;;;;;17.93;22.52;98681.28;6178656;23;20021;-95